Andover, Minnesota
Current Conditions -  °F | °C
As of 9:45 AM on Thursday 23 Oct 2014 (Local Time) from KANE Reporting Station
Overcast Overcast  
Wind Chill: 55°   Ceiling: 700
Heat Index: 55°   Visibility: 7mi
Dew Point: 55°   Wind: 5mph
Humidity: 100%   Direction: 210°SSW
Pressure: 29.99"   Gusts: NA
Location:  45.24°N, 93.31°W
Report Text: KANE 231445Z 21004KT 7SM OVC007 13/13 A2999
Loading
Personal Weather Stations






























Interactive Weather Map
Tropical Storm Tracking
New forecast layout! Learn more

10-Day Weather Forecast

Advertisements
Track Severe Weather on mobile